Time;durP1;ratioP1;P1;durP2;ratioP2;P2;SDS_P1;SDS_P2;PMS_P1;PMS_P2;Temp;Humidity;BMP_temperature;BMP_pressure;BME280_temperature;BME280_humidity;BME280_pressure;Samples;Min_cycle;Max_cycle;Signal;HPM_P1;HPM_P2
2022/03/18 00:00:21;;;;;;;15.80;10.10;;;;;;;-0.29;47.69;98462.68;108053;1269;45139;-73
2022/03/18 00:03:12;;;;;;;19.10;10.70;;;;;;;-0.31;47.89;98462.87;108088;1271;31997;-72
2022/03/18 00:05:43;;;;;;;20.90;10.90;;;;;;;-0.30;47.92;98460.73;108030;1271;40026;-72
2022/03/18 00:08:15;;;;;;;20.10;9.90;;;;;;;-0.29;47.88;98460.82;107960;1271;41313;-73
2022/03/18 00:10:46;;;;;;;17.10;9.60;;;;;;;-0.27;48.01;98459.41;107996;1271;38306;-72
2022/03/18 00:13:17;;;;;;;18.90;10.00;;;;;;;-0.29;47.95;98457.48;107971;1271;45634;-72
2022/03/18 00:15:49;;;;;;;22.00;9.50;;;;;;;-0.37;48.47;98455.52;107963;1271;32072;-72
2022/03/18 00:18:20;;;;;;;17.30;10.00;;;;;;;-0.41;48.41;98459.29;108094;1271;42029;-72
2022/03/18 00:20:52;;;;;;;16.40;10.10;;;;;;;-0.42;48.35;98459.39;108036;1270;31982;-72
2022/03/18 00:23:23;;;;;;;17.40;9.20;;;;;;;-0.37;48.63;98463.50;108057;1270;31413;-73
2022/03/18 00:25:54;;;;;;;16.70;9.50;;;;;;;-0.40;48.03;98464.62;108004;1270;43253;-73
2022/03/18 00:28:25;;;;;;;20.10;10.50;;;;;;;-0.44;48.57;98464.51;108061;1271;42869;-72
2022/03/18 00:30:57;;;;;;;18.70;11.10;;;;;;;-0.44;48.62;98463.95;108083;1270;26602;-72
2022/03/18 00:33:28;;;;;;;16.00;10.40;;;;;;;-0.45;48.65;98464.89;108128;1271;37936;-73
2022/03/18 00:35:59;;;;;;;19.30;10.90;;;;;;;-0.46;48.86;98461.70;108071;1271;43613;-73
2022/03/18 00:38:31;;;;;;;18.40;10.20;;;;;;;-0.49;48.52;98461.71;108050;1270;29027;-72
2022/03/18 00:41:03;;;;;;;20.80;11.40;;;;;;;-0.55;48.83;98456.99;107970;1270;33656;-72
2022/03/18 00:43:34;;;;;;;18.60;9.50;;;;;;;-0.58;48.77;98458.18;108110;1270;33218;-73
2022/03/18 00:46:06;;;;;;;16.70;10.10;;;;;;;-0.63;48.78;98462.16;108114;1271;31111;-73
2022/03/18 00:54:52;;;;;;;17.80;10.20;;;;;;;-0.68;49.21;98452.77;107982;1270;40571;-73
2022/03/18 00:57:23;;;;;;;17.10;10.10;;;;;;;-0.75;49.78;98457.48;108080;1270;31771;-73
2022/03/18 00:59:54;;;;;;;14.40;9.30;;;;;;;-0.78;50.00;98456.77;108088;1270;38810;-73
2022/03/18 01:02:28;;;;;;;16.20;9.90;;;;;;;-0.84;49.80;98456.57;107958;1270;37972;-73
2022/03/18 01:04:59;;;;;;;15.80;9.30;;;;;;;-0.83;50.01;98458.95;108073;1270;36134;-73
2022/03/18 01:07:30;;;;;;;17.80;9.70;;;;;;;-0.85;49.97;98456.45;108150;1270;30688;-73
2022/03/18 01:10:01;;;;;;;16.20;9.10;;;;;;;-0.84;50.11;98455.88;107989;1270;39750;-74
2022/03/18 01:12:32;;;;;;;14.00;8.60;;;;;;;-0.85;49.96;98461.02;108083;1270;33392;-73
2022/03/18 01:15:03;;;;;;;17.00;9.10;;;;;;;-0.86;50.13;98460.56;108037;1270;30870;-73
2022/03/18 01:17:34;;;;;;;16.20;9.50;;;;;;;-0.92;50.04;98464.03;108021;1270;32544;-73
2022/03/18 01:20:07;;;;;;;16.40;9.30;;;;;;;-0.98;50.30;98466.77;107984;1270;40668;-73
2022/03/18 01:22:39;;;;;;;19.90;9.50;;;;;;;-1.04;50.24;98468.85;108102;1270;40446;-73
2022/03/18 01:25:11;;;;;;;15.80;9.30;;;;;;;-1.05;49.91;98470.41;107962;1270;40797;-73
2022/03/18 01:27:42;;;;;;;17.30;9.90;;;;;;;-1.05;49.96;98467.94;108101;1270;41825;-73
2022/03/18 01:30:15;;;;;;;17.70;10.00;;;;;;;-1.06;50.34;98467.38;107952;1271;38447;-73
2022/03/18 01:32:46;;;;;;;17.30;9.90;;;;;;;-1.12;50.12;98465.97;108063;1270;29320;-73
2022/03/18 01:35:16;;;;;;;16.70;9.20;;;;;;;-1.13;50.35;98465.17;107960;1270;44114;-73
2022/03/18 01:37:48;;;;;;;17.20;10.20;;;;;;;-1.12;50.39;98464.39;107984;1270;42327;-73
2022/03/18 01:40:19;;;;;;;17.90;10.30;;;;;;;-1.10;50.34;98465.16;107976;1270;50743;-73
2022/03/18 01:42:49;;;;;;;19.90;10.60;;;;;;;-1.04;50.50;98464.33;108125;1270;33716;-73
2022/03/18 01:45:20;;;;;;;19.40;10.00;;;;;;;-1.01;50.43;98460.42;107967;1270;39370;-73
2022/03/18 01:47:53;;;;;;;17.50;9.30;;;;;;;-1.05;50.27;98463.64;108065;1270;45939;-73
2022/03/18 01:50:23;;;;;;;17.10;10.10;;;;;;;-1.04;50.58;98461.92;107990;1270;41968;-73
2022/03/18 01:52:55;;;;;;;16.90;9.70;;;;;;;-1.01;50.81;98463.88;107990;1270;34656;-73
2022/03/18 01:55:26;;;;;;;18.00;9.80;;;;;;;-1.04;50.82;98466.45;108055;1270;44288;-73
2022/03/18 01:58:07;;;;;;;18.00;10.40;;;;;;;-1.17;50.51;98464.65;108059;1270;42503;-73
2022/03/18 02:00:38;;;;;;;17.70;10.70;;;;;;;-1.23;50.71;98469.45;108076;1270;46374;-73
2022/03/18 02:03:09;;;;;;;19.50;10.10;;;;;;;-1.23;50.50;98467.40;108057;1270;43416;-73
2022/03/18 02:05:40;;;;;;;16.10;9.00;;;;;;;-1.26;50.62;98467.20;108081;1270;40837;-73
2022/03/18 02:08:12;;;;;;;16.00;8.50;;;;;;;-1.27;50.73;98467.26;108015;1270;43477;-74
2022/03/18 02:10:44;;;;;;;16.60;8.60;;;;;;;-1.25;50.70;98466.23;108033;1270;32449;-73
2022/03/18 02:13:15;;;;;;;20.90;8.40;;;;;;;-1.24;50.71;98464.74;107957;1270;39983;-73
2022/03/18 02:15:46;;;;;;;17.20;9.30;;;;;;;-1.19;50.82;98465.39;107985;1270;30042;-74
2022/03/18 02:18:17;;;;;;;16.60;8.80;;;;;;;-1.15;50.91;98461.89;108037;1270;35470;-73
2022/03/18 02:20:48;;;;;;;15.90;9.60;;;;;;;-1.16;50.68;98465.65;108009;1270;40509;-74
2022/03/18 02:23:20;;;;;;;13.10;9.00;;;;;;;-1.23;50.86;98464.61;108088;1269;39124;-73
2022/03/18 02:25:51;;;;;;;15.60;9.20;;;;;;;-1.27;50.72;98467.23;108044;1270;32886;-73
2022/03/18 02:28:22;;;;;;;15.90;8.90;;;;;;;-1.28;50.79;98466.88;108069;1269;38098;-73
2022/03/18 02:30:52;;;;;;;18.90;9.30;;;;;;;-1.36;51.01;98471.84;108037;1270;31292;-73
2022/03/18 02:33:23;;;;;;;19.40;9.10;;;;;;;-1.46;50.97;98467.52;108026;1270;46571;-74
2022/03/18 02:35:55;;;;;;;17.90;10.10;;;;;;;-1.50;50.94;98464.66;108043;1270;40943;-73
2022/03/18 02:38:26;;;;;;;15.70;9.10;;;;;;;-1.52;50.94;98464.49;108040;1270;42202;-74
2022/03/18 02:40:57;;;;;;;19.00;9.50;;;;;;;-1.51;50.86;98460.86;108040;1270;40932;-74
2022/03/18 02:43:28;;;;;;;18.80;9.00;;;;;;;-1.52;51.24;98460.00;108020;1271;31969;-73
2022/03/18 02:45:59;;;;;;;15.80;9.10;;;;;;;-1.59;51.23;98460.64;107996;1270;41201;-73
2022/03/18 02:48:30;;;;;;;18.50;9.30;;;;;;;-1.60;51.73;98466.48;108009;1270;46847;-74
2022/03/18 02:51:01;;;;;;;14.90;9.30;;;;;;;-1.66;51.73;98466.60;107990;1270;35990;-74
2022/03/18 02:53:32;;;;;;;13.20;7.90;;;;;;;-1.69;51.82;98467.27;108039;1270;41585;-74
2022/03/18 02:56:04;;;;;;;14.00;8.30;;;;;;;-1.65;51.72;98468.88;107903;1271;43074;-74
2022/03/18 02:58:36;;;;;;;13.40;7.70;;;;;;;-1.59;51.81;98471.95;108069;1270;33712;-74
2022/03/18 03:01:07;;;;;;;15.80;7.80;;;;;;;-1.63;51.83;98474.61;108066;1270;101834;-74
2022/03/18 03:03:38;;;;;;;11.50;7.40;;;;;;;-1.66;52.21;98479.27;108104;1270;32580;-74
2022/03/18 03:08:58;;;;;;;15.80;7.30;;;;;;;-1.75;52.51;98482.23;108145;1270;39272;-74
2022/03/18 03:11:29;;;;;;;11.10;7.30;;;;;;;-1.73;52.55;98482.55;108081;1269;38215;-74
2022/03/18 03:14:00;;;;;;;12.70;7.30;;;;;;;-1.68;52.38;98485.84;108041;1270;46619;-73
2022/03/18 03:16:31;;;;;;;13.70;7.40;;;;;;;-1.73;52.32;98488.27;108030;1270;42424;-74
2022/03/18 03:19:03;;;;;;;12.80;6.90;;;;;;;-1.77;52.40;98491.80;108132;1270;28209;-74
2022/03/18 03:21:35;;;;;;;14.50;8.40;;;;;;;-1.88;52.73;98491.35;108034;1270;39502;-74
2022/03/18 03:24:08;;;;;;;13.10;7.40;;;;;;;-1.98;52.79;98495.74;108137;1270;33573;-74
2022/03/18 03:26:40;;;;;;;17.60;8.00;;;;;;;-2.00;53.01;98498.25;108037;1270;41503;-73
2022/03/18 03:29:11;;;;;;;16.60;8.60;;;;;;;-2.04;53.14;98496.91;108038;1270;47694;-74
2022/03/18 03:31:42;;;;;;;17.90;8.60;;;;;;;-2.07;53.33;98498.94;107931;1271;43461;-74
2022/03/18 03:34:14;;;;;;;17.90;8.70;;;;;;;-2.07;53.18;98505.37;108115;1270;37396;-74
2022/03/18 03:36:45;;;;;;;13.30;7.80;;;;;;;-2.02;53.43;98506.44;108094;1270;43074;-74
2022/03/18 03:39:16;;;;;;;14.00;8.60;;;;;;;-1.93;53.41;98506.25;107985;1270;45399;-73
2022/03/18 03:41:47;;;;;;;16.40;8.20;;;;;;;-1.86;53.37;98505.73;108075;1269;42054;-74
2022/03/18 03:44:18;;;;;;;16.00;8.30;;;;;;;-1.83;53.16;98511.09;108052;1270;42001;-74
2022/03/18 03:46:49;;;;;;;12.70;7.60;;;;;;;-1.86;53.15;98510.34;108073;1270;37613;-73
2022/03/18 03:49:21;;;;;;;15.20;8.10;;;;;;;-1.97;52.92;98517.16;108110;1270;33408;-73
2022/03/18 03:51:52;;;;;;;13.20;7.30;;;;;;;-2.03;53.13;98524.36;108098;1270;29141;-74
2022/03/18 03:54:23;;;;;;;14.80;7.90;;;;;;;-2.04;53.23;98523.77;108112;1270;35326;-74
2022/03/18 03:56:55;;;;;;;13.10;7.40;;;;;;;-1.98;53.37;98526.51;108120;1269;40056;-73
2022/03/18 03:59:26;;;;;;;14.70;8.00;;;;;;;-1.96;53.31;98528.20;108092;1270;59871;-74
2022/03/18 04:01:58;;;;;;;15.00;8.30;;;;;;;-2.05;53.21;98531.14;108105;1270;39684;-74
2022/03/18 04:04:29;;;;;;;14.10;7.70;;;;;;;-2.10;53.36;98528.84;108070;1269;45207;-74
2022/03/18 04:07:00;;;;;;;11.90;7.60;;;;;;;-2.11;53.54;98532.59;108151;1270;46289;-74
2022/03/18 04:09:31;;;;;;;16.90;8.90;;;;;;;-2.19;53.51;98533.56;108164;1270;45156;-73
2022/03/18 04:12:01;;;;;;;15.50;8.60;;;;;;;-2.30;53.78;98532.39;108037;1270;39878;-74
2022/03/18 04:14:32;;;;;;;16.60;9.10;;;;;;;-2.37;54.06;98530.98;108061;1270;41120;-74
2022/03/18 04:17:03;;;;;;;15.90;9.20;;;;;;;-2.39;54.15;98530.68;108053;1270;33822;-74
2022/03/18 04:19:34;;;;;;;15.90;9.30;;;;;;;-2.41;54.59;98533.42;108053;1270;40773;-74
2022/03/18 04:22:06;;;;;;;14.70;8.90;;;;;;;-2.45;54.47;98538.49;108047;1270;43687;-74
2022/03/18 04:24:38;;;;;;;15.10;8.10;;;;;;;-2.45;54.50;98538.52;108036;1270;42548;-74
2022/03/18 04:27:09;;;;;;;16.40;8.60;;;;;;;-2.42;54.56;98537.38;108044;1270;51683;-74
2022/03/18 04:29:40;;;;;;;14.60;8.80;;;;;;;-2.38;54.83;98536.51;107986;1270;46079;-73
2022/03/18 04:32:11;;;;;;;17.10;8.60;;;;;;;-2.35;55.04;98536.58;107998;1270;42152;-74
2022/03/18 04:34:43;;;;;;;16.80;8.90;;;;;;;-2.33;54.96;98538.92;107981;1270;36361;-74
2022/03/18 04:37:14;;;;;;;16.40;8.60;;;;;;;-2.30;54.82;98536.88;108062;1270;43137;-75
2022/03/18 04:39:45;;;;;;;16.00;8.90;;;;;;;-2.24;55.04;98533.59;108002;1270;46365;-75
2022/03/18 04:42:16;;;;;;;17.70;8.50;;;;;;;-2.21;54.91;98536.41;108036;1270;38702;-75
2022/03/18 04:44:47;;;;;;;16.40;8.40;;;;;;;-2.25;54.88;98538.67;107940;1271;39676;-75
2022/03/18 04:47:19;;;;;;;13.70;8.80;;;;;;;-2.22;54.95;98540.27;107987;1268;54456;-75
2022/03/18 04:49:50;;;;;;;14.30;8.50;;;;;;;-2.16;55.07;98544.91;107963;1270;44703;-75
2022/03/18 04:52:21;;;;;;;14.00;8.70;;;;;;;-2.16;55.06;98544.85;108087;1270;30173;-75
2022/03/18 04:54:52;;;;;;;16.10;8.90;;;;;;;-2.12;55.15;98547.71;107980;1270;46898;-74
2022/03/18 04:57:23;;;;;;;14.50;9.20;;;;;;;-2.10;54.88;98550.50;108072;1270;33826;-74
2022/03/18 04:59:56;;;;;;;19.00;10.10;;;;;;;-2.02;55.06;98552.88;108014;1270;34039;-74
2022/03/18 05:02:28;;;;;;;18.10;9.80;;;;;;;-1.89;54.98;98554.30;108083;1270;44726;-74
2022/03/18 05:04:59;;;;;;;17.20;9.70;;;;;;;-1.64;54.55;98553.23;108053;1269;48469;-74
2022/03/18 05:07:30;;;;;;;18.40;10.20;;;;;;;-1.23;54.50;98550.95;108063;1270;48258;-74
2022/03/18 05:10:01;;;;;;;20.40;9.90;;;;;;;-0.71;54.16;98553.06;108045;1270;44816;-74
2022/03/18 05:12:32;;;;;;;19.60;10.70;;;;;;;-0.23;53.92;98553.98;108058;1270;40380;-74
2022/03/18 05:15:04;;;;;;;20.00;10.90;;;;;;;0.19;53.72;98554.91;108142;1270;29540;-74
2022/03/18 05:17:35;;;;;;;17.10;10.50;;;;;;;0.76;53.37;98554.09;108033;1270;48370;-74
2022/03/18 05:20:10;;;;;;;15.40;10.00;;;;;;;1.38;52.96;98549.66;108082;1268;37774;-74
2022/03/18 05:22:41;;;;;;;17.60;10.90;;;;;;;1.96;52.49;98552.48;108028;1270;43780;-74
2022/03/18 05:25:13;;;;;;;16.60;10.70;;;;;;;2.49;51.65;98556.04;108030;1270;44634;-74
2022/03/18 05:27:45;;;;;;;17.00;10.80;;;;;;;3.07;51.33;98553.02;108085;1270;30219;-74
2022/03/18 05:30:18;;;;;;;17.90;12.00;;;;;;;3.75;50.75;98549.38;108051;1270;41751;-75
2022/03/18 05:32:49;;;;;;;17.90;11.40;;;;;;;4.47;49.42;98549.02;108102;1270;45547;-74
2022/03/18 05:35:21;;;;;;;15.20;9.80;;;;;;;5.16;48.70;98550.60;108002;1268;50093;-74
2022/03/18 05:37:52;;;;;;;16.70;10.20;;;;;;;5.72;47.71;98551.96;108081;1270;42874;-75
2022/03/18 05:40:23;;;;;;;18.10;10.60;;;;;;;6.32;47.36;98555.73;108105;1270;43230;-74
2022/03/18 05:42:54;;;;;;;16.80;11.40;;;;;;;6.96;46.79;98553.03;108124;1268;32048;-74
2022/03/18 05:45:25;;;;;;;18.10;11.40;;;;;;;7.58;46.43;98551.96;107968;1270;34556;-74
2022/03/18 05:47:56;;;;;;;19.30;12.60;;;;;;;8.26;45.88;98548.30;108131;1270;33369;-75
2022/03/18 05:50:28;;;;;;;18.30;12.60;;;;;;;8.86;44.28;98547.73;108122;1270;27116;-74
2022/03/18 05:52:58;;;;;;;17.10;11.60;;;;;;;9.23;42.27;98546.59;108033;1270;54236;-74
2022/03/18 05:56:52;;;;;;;14.90;11.50;;;;;;;9.12;41.15;98551.45;107977;1270;47412;-74
2022/03/18 05:58:23;;;;;;;16.70;11.70;;;;;;;9.60;41.97;98554.44;107935;1270;44803;-74
2022/03/18 06:00:55;;;;;;;17.10;11.50;;;;;;;9.99;41.55;98554.36;107956;1270;47041;-74
2022/03/18 06:03:26;;;;;;;16.90;12.00;;;;;;;10.08;41.06;98556.02;107913;1271;32796;-74
2022/03/18 06:05:58;;;;;;;16.60;11.90;;;;;;;10.07;40.37;98562.71;108005;1271;42199;-74
2022/03/18 06:14:05;;;;;;;17.50;10.80;;;;;;;8.20;39.83;98577.05;107965;1270;42576;-74
2022/03/18 06:16:37;;;;;;;16.20;11.60;;;;;;;7.98;40.27;98581.55;107947;1270;43506;-74
2022/03/18 06:19:09;;;;;;;17.00;11.20;;;;;;;7.99;40.12;98586.06;108024;1270;33120;-74
2022/03/18 06:21:40;;;;;;;17.10;11.90;;;;;;;8.03;40.36;98583.62;108026;1270;35458;-74
2022/03/18 06:24:11;;;;;;;22.70;13.60;;;;;;;8.05;40.13;98585.91;108022;1270;41198;-73
2022/03/18 06:26:44;;;;;;;24.10;14.90;;;;;;;7.79;40.01;98591.67;108119;1270;31671;-73
2022/03/18 06:29:15;;;;;;;25.10;16.60;;;;;;;7.69;39.83;98587.98;108107;1270;35697;-73
2022/03/18 06:31:46;;;;;;;23.10;15.10;;;;;;;7.92;40.13;98594.44;108022;1270;44225;-74
2022/03/18 06:34:18;;;;;;;25.30;17.30;;;;;;;7.99;39.80;98592.45;108085;1270;42261;-74
2022/03/18 06:36:50;;;;;;;22.80;16.00;;;;;;;8.10;39.63;98598.73;107976;1270;41219;-73
2022/03/18 06:39:22;;;;;;;23.90;16.50;;;;;;;8.08;39.57;98598.70;108073;1268;33104;-74
2022/03/18 06:41:54;;;;;;;22.60;15.60;;;;;;;8.11;39.50;98599.45;107948;1271;40143;-73
2022/03/18 06:44:25;;;;;;;24.00;15.90;;;;;;;7.91;39.31;98602.90;108108;1270;48427;-73
2022/03/18 06:46:56;;;;;;;25.00;16.20;;;;;;;7.61;39.23;98611.52;108137;1270;39215;-73
2022/03/18 06:49:26;;;;;;;21.40;14.60;;;;;;;7.70;39.70;98618.33;108145;1270;48686;-73
2022/03/18 06:51:59;;;;;;;21.60;14.60;;;;;;;8.04;39.50;98622.20;108075;1270;49455;-73
2022/03/18 06:54:30;;;;;;;22.80;16.20;;;;;;;8.46;39.25;98619.99;108091;1268;45505;-73
2022/03/18 06:57:01;;;;;;;22.90;15.90;;;;;;;8.96;38.92;98620.27;108108;1270;37570;-73
2022/03/18 06:59:33;;;;;;;21.40;15.60;;;;;;;9.55;38.59;98620.81;108012;1270;38863;-74
2022/03/18 07:02:04;;;;;;;22.90;16.20;;;;;;;10.34;38.07;98624.23;107914;1270;35186;-74
2022/03/18 07:04:35;;;;;;;20.40;15.10;;;;;;;11.04;37.53;98625.14;107948;1270;42454;-73
2022/03/18 07:07:07;;;;;;;19.50;15.50;;;;;;;11.93;37.02;98624.81;108044;1270;33944;-73
2022/03/18 07:09:38;;;;;;;23.30;16.80;;;;;;;12.88;36.22;98621.77;108075;1268;30783;-73
2022/03/18 07:12:11;;;;;;;21.10;17.00;;;;;;;14.02;35.52;98621.76;108082;1270;88715;-73
2022/03/18 07:14:43;;;;;;;23.40;17.20;;;;;;;14.71;34.55;98622.16;108164;1270;29354;-74
2022/03/18 07:20:03;;;;;;;25.30;18.80;;;;;;;14.04;32.12;98629.21;108122;1270;41286;-75
2022/03/18 07:22:34;;;;;;;25.50;19.00;;;;;;;13.64;31.57;98630.20;108127;1270;33604;-74
2022/03/18 07:25:07;;;;;;;24.20;17.70;;;;;;;13.40;31.84;98631.39;108111;1269;64752;-74
2022/03/18 07:27:37;;;;;;;23.00;18.80;;;;;;;13.34;31.61;98633.81;108100;1270;36803;-74
2022/03/18 07:30:11;;;;;;;25.70;19.60;;;;;;;13.26;32.07;98638.27;108109;1270;38212;-74
2022/03/18 07:32:42;;;;;;;21.50;18.00;;;;;;;14.54;32.61;98639.08;108098;1270;35282;-74
2022/03/18 07:35:14;;;;;;;22.30;19.00;;;;;;;15.96;32.20;98644.41;108108;1270;40172;-74
2022/03/18 07:37:47;;;;;;;24.90;18.10;;;;;;;16.90;31.27;98640.38;108103;1270;36534;-74
2022/03/18 07:40:19;;;;;;;24.30;19.00;;;;;;;17.35;29.54;98639.73;108077;1270;43020;-74
2022/03/18 07:42:52;;;;;;;21.90;18.10;;;;;;;16.60;28.45;98644.05;108104;1270;38329;-74
2022/03/18 07:45:27;;;;;;;23.00;17.80;;;;;;;16.87;29.46;98642.25;107906;1270;40141;-74
2022/03/18 07:48:00;;;;;;;21.10;18.80;;;;;;;17.93;28.74;98639.31;107941;1271;69452;-74
2022/03/18 07:50:33;;;;;;;23.30;19.30;;;;;;;18.15;28.61;98641.77;108041;1270;40281;-74
2022/03/18 07:53:06;;;;;;;21.20;18.90;;;;;;;18.87;28.33;98641.73;108137;1270;37856;-75
2022/03/18 07:55:38;;;;;;;22.20;19.30;;;;;;;19.03;27.80;98643.52;108106;1270;38595;-74
2022/03/18 07:58:10;;;;;;;22.80;19.10;;;;;;;19.83;27.71;98645.04;108096;1270;39856;-75
2022/03/18 08:00:42;;;;;;;20.00;17.90;;;;;;;20.68;27.60;98645.73;108084;1269;41940;-74
2022/03/18 08:03:14;;;;;;;22.50;19.20;;;;;;;20.40;25.13;98645.92;108046;1270;33354;-74
2022/03/18 08:05:45;;;;;;;22.60;19.30;;;;;;;19.19;24.74;98650.88;108085;1270;41802;-74
2022/03/18 08:08:16;;;;;;;23.40;18.60;;;;;;;18.43;25.07;98653.42;107995;1268;43125;-74
2022/03/18 08:10:47;;;;;;;21.20;18.10;;;;;;;18.42;26.19;98657.35;108007;1270;37888;-74
2022/03/18 08:13:18;;;;;;;21.10;18.80;;;;;;;19.26;26.10;98657.48;108014;1270;35226;-74
2022/03/18 08:15:50;;;;;;;21.80;19.50;;;;;;;18.88;24.21;98656.48;108095;1269;41938;-74
2022/03/18 08:18:21;;;;;;;23.20;20.80;;;;;;;17.80;23.89;98660.88;108084;1268;38292;-74
2022/03/18 08:20:54;;;;;;;22.30;18.60;;;;;;;16.92;24.56;98667.08;108112;1270;31707;-74
2022/03/18 08:23:27;;;;;;;22.20;18.50;;;;;;;17.34;25.95;98668.57;108071;1270;38467;-74
2022/03/18 08:25:58;;;;;;;26.80;20.10;;;;;;;18.05;24.32;98669.81;108148;1270;42258;-74
2022/03/18 08:28:29;;;;;;;22.40;19.80;;;;;;;17.40;23.92;98668.35;108155;1269;30915;-73
2022/03/18 08:31:00;;;;;;;25.60;20.40;;;;;;;17.03;25.20;98675.11;108091;1270;31659;-73
2022/03/18 08:33:32;;;;;;;23.10;20.50;;;;;;;17.83;24.68;98675.38;108067;1268;32207;-74
2022/03/18 08:36:03;;;;;;;24.10;20.90;;;;;;;17.16;24.76;98680.45;107982;1270;27464;-74
2022/03/18 08:38:34;;;;;;;23.80;20.20;;;;;;;17.48;25.34;98676.60;108026;1270;99379;-73
2022/03/18 08:41:06;;;;;;;23.90;18.60;;;;;;;18.49;25.93;98677.29;108036;1269;42381;-74
2022/03/18 08:43:36;;;;;;;22.00;17.50;;;;;;;19.62;25.95;98681.34;108087;1270;38995;-74
2022/03/18 08:46:08;;;;;;;24.80;18.70;;;;;;;20.37;25.27;98684.47;108129;1270;31862;-74
2022/03/18 08:48:39;;;;;;;25.40;18.10;;;;;;;20.60;24.32;98683.52;108084;1270;31974;-73
2022/03/18 08:51:10;;;;;;;25.40;17.90;;;;;;;20.17;23.54;98685.27;108062;1270;38581;-73
2022/03/18 08:53:41;;;;;;;22.70;17.40;;;;;;;19.97;24.42;98686.98;108102;1269;42426;-73
2022/03/18 08:56:12;;;;;;;23.60;18.50;;;;;;;20.26;24.38;98691.23;108084;1270;39534;-73
2022/03/18 08:58:43;;;;;;;26.60;18.30;;;;;;;20.20;24.61;98697.35;108093;1270;35079;-73
2022/03/18 09:01:14;;;;;;;27.00;19.70;;;;;;;20.38;24.87;98701.91;108072;1270;34505;-73
2022/03/18 09:03:45;;;;;;;25.10;18.70;;;;;;;19.81;23.39;98705.77;108111;1268;32156;-73
2022/03/18 09:06:16;;;;;;;26.50;19.30;;;;;;;18.87;23.88;98709.23;108104;1270;32801;-73
2022/03/18 09:08:47;;;;;;;23.70;19.00;;;;;;;18.32;24.34;98711.87;108126;1270;38079;-74
2022/03/18 09:11:18;;;;;;;26.00;19.20;;;;;;;17.63;23.89;98715.83;107960;1270;29032;-74
2022/03/18 09:13:49;;;;;;;25.40;18.10;;;;;;;15.44;23.97;98723.26;108145;1270;31363;-73
2022/03/18 09:16:20;;;;;;;28.40;19.00;;;;;;;13.71;26.57;98725.02;108094;1270;38075;-73
2022/03/18 09:18:52;;;;;;;28.10;19.10;;;;;;;13.63;27.34;98724.86;108144;1270;33813;-73
2022/03/18 09:21:23;;;;;;;27.80;19.90;;;;;;;12.90;27.63;98729.92;108079;1270;37138;-73
2022/03/18 09:23:54;;;;;;;29.10;18.10;;;;;;;12.04;28.70;98734.58;108076;1270;30757;-73
2022/03/18 09:26:25;;;;;;;25.80;19.90;;;;;;;11.02;29.41;98728.92;108145;1270;34929;-73
2022/03/18 09:28:56;;;;;;;24.50;18.10;;;;;;;10.47;31.02;98730.41;107971;1270;30247;-73
2022/03/18 09:31:27;;;;;;;28.00;19.10;;;;;;;10.67;31.28;98728.17;108041;1270;32400;-73
2022/03/18 09:33:58;;;;;;;29.90;20.00;;;;;;;10.63;31.10;98728.45;108070;1270;41817;-73
2022/03/18 09:36:31;;;;;;;27.40;18.90;;;;;;;10.39;31.62;98732.14;108045;1270;40789;-73
2022/03/18 09:39:02;;;;;;;30.20;20.60;;;;;;;10.01;31.87;98733.21;108087;1270;42484;-73
2022/03/18 09:41:33;;;;;;;31.30;20.90;;;;;;;9.28;33.02;98736.02;107984;1270;32508;-74
2022/03/18 09:44:04;;;;;;;29.30;19.70;;;;;;;8.86;33.97;98742.61;107962;1270;42369;-74
2022/03/18 09:46:35;;;;;;;31.60;19.30;;;;;;;8.84;34.24;98741.63;108057;1270;36867;-73
2022/03/18 09:49:11;;;;;;;30.20;20.60;;;;;;;8.92;34.52;98741.06;108066;1270;35513;-73
2022/03/18 09:51:44;;;;;;;28.50;18.90;;;;;;;8.92;34.61;98742.41;108091;1270;36833;-74
2022/03/18 09:54:16;;;;;;;32.40;21.20;;;;;;;9.07;34.63;98741.35;108111;1270;41385;-73
2022/03/18 09:56:49;;;;;;;28.20;19.10;;;;;;;9.30;34.85;98741.60;108090;1270;34311;-73
2022/03/18 09:59:21;;;;;;;27.80;19.50;;;;;;;9.44;34.34;98745.34;108063;1270;34294;-73
2022/03/18 10:02:13;;;;;;;27.50;19.70;;;;;;;9.34;34.43;98750.52;108086;1270;42852;-73
2022/03/18 10:04:55;;;;;;;26.10;18.80;;;;;;;9.35;35.18;98746.04;107989;1270;68619;-73
2022/03/18 10:07:28;;;;;;;31.00;21.00;;;;;;;9.81;35.34;98744.77;108055;1270;41299;-73
2022/03/18 10:10:15;;;;;;;27.60;19.20;;;;;;;10.23;35.12;98746.83;108127;1270;42824;-73
2022/03/18 10:12:48;;;;;;;28.50;19.20;;;;;;;10.49;34.55;98747.16;108071;1270;40777;-73
2022/03/18 10:15:23;;;;;;;27.80;19.60;;;;;;;10.41;33.83;98748.76;108169;1270;30808;-73
2022/03/18 10:17:56;;;;;;;30.10;21.30;;;;;;;9.99;34.12;98753.29;108096;1270;42610;-73
2022/03/18 10:20:32;;;;;;;30.00;19.90;;;;;;;9.86;34.55;98758.20;108056;1270;41624;-73
2022/03/18 10:23:21;;;;;;;27.40;19.50;;;;;;;9.80;34.51;98756.87;108074;1270;44858;-73
2022/03/18 10:25:55;;;;;;;29.20;21.10;;;;;;;9.93;35.00;98758.65;107919;1270;101934;-73
2022/03/18 10:28:41;;;;;;;30.00;20.80;;;;;;;10.12;34.59;98759.66;108164;1270;29613;-73
2022/03/18 10:31:18;;;;;;;28.00;19.80;;;;;;;9.86;34.58;98761.13;107957;1270;35040;-73
2022/03/18 10:39:32;;;;;;;28.50;21.40;;;;;;;9.31;35.77;98767.14;108142;1270;34758;-73
2022/03/18 10:42:06;;;;;;;26.80;19.80;;;;;;;9.29;36.24;98769.83;108112;1270;32455;-74
2022/03/18 10:44:50;;;;;;;29.60;21.90;;;;;;;9.35;36.45;98769.38;108057;1270;41706;-74
2022/03/18 10:47:37;;;;;;;25.90;19.20;;;;;;;9.29;36.76;98766.64;108155;1270;35681;-74
2022/03/18 10:50:23;;;;;;;30.00;20.80;;;;;;;9.45;36.71;98769.70;108024;1270;45832;-74
2022/03/18 10:53:07;;;;;;;30.60;20.80;;;;;;;9.23;36.93;98766.58;108127;1270;34063;-74
2022/03/18 10:55:39;;;;;;;21.90;17.20;;;;;;;9.47;37.64;98763.88;108127;1270;38991;-74
2022/03/18 10:58:12;;;;;;;28.00;20.40;;;;;;;9.67;37.25;98764.55;108089;1270;36607;-74
2022/03/18 11:00:45;;;;;;;29.70;21.80;;;;;;;9.86;37.28;98760.93;108044;1270;44705;-73
2022/03/18 11:03:17;;;;;;;28.70;20.20;;;;;;;9.88;37.33;98762.19;108118;1270;35620;-74
2022/03/18 11:05:51;;;;;;;24.80;19.80;;;;;;;10.13;37.65;98766.79;108025;1270;38119;-73
2022/03/18 11:08:23;;;;;;;28.30;22.60;;;;;;;10.27;36.73;98763.27;108097;1270;39672;-74
2022/03/18 11:11:11;;;;;;;26.80;19.40;;;;;;;10.19;37.09;98765.98;107839;1270;323531;-73
2022/03/18 11:13:56;;;;;;;28.90;20.30;;;;;;;10.18;36.57;98760.95;108113;1270;37531;-74
2022/03/18 11:16:29;;;;;;;27.60;20.20;;;;;;;10.08;36.99;98762.67;108039;1269;38437;-73
2022/03/18 11:19:04;;;;;;;27.90;20.50;;;;;;;10.25;37.14;98758.22;108043;1270;40481;-73
2022/03/18 11:21:38;;;;;;;27.00;20.90;;;;;;;10.48;37.05;98760.49;108051;1270;38534;-74
2022/03/18 11:24:12;;;;;;;27.60;20.70;;;;;;;10.59;37.19;98758.10;108077;1268;47296;-74
2022/03/18 11:26:47;;;;;;;26.00;20.70;;;;;;;10.75;37.17;98762.90;108036;1270;39699;-74
2022/03/18 11:29:24;;;;;;;27.40;21.00;;;;;;;10.82;37.21;98755.04;107912;1270;43908;-74
2022/03/18 11:32:23;;;;;;;29.80;22.10;;;;;;;10.95;37.08;98756.57;108035;1270;33881;-74
2022/03/18 11:35:00;;;;;;;27.90;20.80;;;;;;;10.98;36.25;98755.75;108032;1270;40067;-74
2022/03/18 11:37:31;;;;;;;31.60;21.60;;;;;;;10.85;36.84;98756.17;108147;1270;34571;-74
2022/03/18 11:40:30;;;;;;;32.20;21.70;;;;;;;11.02;37.01;98754.41;108083;1270;42820;-74
2022/03/18 11:43:31;;;;;;;27.80;20.50;;;;;;;11.16;36.96;98753.95;108132;1270;41111;-74
2022/03/18 11:46:24;;;;;;;27.60;21.50;;;;;;;11.30;36.78;98753.40;108138;1270;36023;-74
2022/03/18 11:48:56;;;;;;;28.10;21.90;;;;;;;11.38;36.86;98757.35;107978;1270;42204;-74
2022/03/18 11:51:32;;;;;;;27.60;21.70;;;;;;;11.48;36.40;98752.75;108085;1268;41336;-74
2022/03/18 11:54:05;;;;;;;30.20;21.80;;;;;;;11.08;35.96;98756.15;108054;1270;45551;-75
2022/03/18 11:56:47;;;;;;;28.60;21.80;;;;;;;10.99;36.57;98754.70;108022;1270;38934;-74
2022/03/18 11:59:47;;;;;;;28.20;20.80;;;;;;;10.83;35.79;98755.64;108024;1270;38096;-74
2022/03/18 12:02:18;;;;;;;27.90;21.00;;;;;;;10.55;36.97;98753.27;108058;1270;46611;-74